createdAt,value
2022-10-23T00:01:43.344Z,96192.50
2022-10-23T00:04:29.128Z,96192.28
2022-10-23T00:07:15.093Z,96182.63
2022-10-23T00:10:01.337Z,96198.06
2022-10-23T00:12:48.581Z,96194.06
2022-10-23T00:15:35.574Z,96197.88
2022-10-23T00:18:21.726Z,96194.66
2022-10-23T00:21:09.767Z,96189.25
2022-10-23T00:23:55.848Z,96182.22
2022-10-23T00:26:41.772Z,96181.41
2022-10-23T00:29:28.442Z,96176.28
2022-10-23T00:32:14.515Z,96174.97
2022-10-23T00:35:00.424Z,96182.78
2022-10-23T00:37:46.191Z,96189.91
2022-10-23T00:40:31.879Z,96183.38
2022-10-23T00:43:20.558Z,96184.50
2022-10-23T00:46:06.753Z,96176.97
2022-10-23T00:48:52.760Z,96188.34
2022-10-23T00:51:48.150Z,96182.44
2022-10-23T00:54:36.662Z,96179.00
2022-10-23T00:57:22.453Z,96178.72
2022-10-23T01:00:08.808Z,96173.31
2022-10-23T01:02:55.380Z,96184.13
2022-10-23T01:05:49.336Z,96177.91
2022-10-23T01:08:47.447Z,96171.72
2022-10-23T01:11:41.318Z,96176.50
2022-10-23T01:14:42.917Z,96171.91
2022-10-23T01:17:44.614Z,96175.34
2022-10-23T01:20:35.112Z,96172.56
2022-10-23T01:23:39.402Z,96173.06
2022-10-23T01:26:48.063Z,96167.38
2022-10-23T01:29:52.300Z,96164.94
2022-10-23T01:32:48.187Z,96169.19
2022-10-23T01:35:46.442Z,96170.81
2022-10-23T01:38:46.087Z,96167.59
2022-10-23T01:41:45.053Z,96169.72
2022-10-23T01:44:44.386Z,96177.22
2022-10-23T01:47:31.576Z,96174.00
2022-10-23T01:50:27.437Z,96180.44
2022-10-23T01:53:21.153Z,96167.00
2022-10-23T01:56:12.653Z,96170.44
2022-10-23T01:59:02.207Z,96161.59
2022-10-23T02:01:54.743Z,96159.38
2022-10-23T02:04:45.748Z,96161.00
2022-10-23T02:07:31.583Z,96156.19
2022-10-23T02:10:17.891Z,96160.47
2022-10-23T02:13:11.698Z,96159.19
2022-10-23T02:16:25.244Z,96148.13
2022-10-23T02:19:38.623Z,96150.34
2022-10-23T02:22:41.267Z,96154.22
2022-10-23T02:25:32.657Z,96160.16
2022-10-23T02:28:23.718Z,96168.34
2022-10-23T02:31:15.041Z,96171.56
2022-10-23T02:34:01.425Z,96158.31
2022-10-23T02:36:47.511Z,96158.09
2022-10-23T02:39:33.295Z,96167.31
2022-10-23T02:42:23.460Z,96172.72
2022-10-23T02:45:34.226Z,96169.53
2022-10-23T02:48:32.030Z,96164.69
2022-10-23T02:51:47.242Z,96169.88
2022-10-23T02:54:58.643Z,96172.88
2022-10-23T02:57:57.189Z,96174.84
2022-10-23T03:00:51.154Z,96185.44
2022-10-23T03:03:58.196Z,96188.22
2022-10-23T03:06:44.594Z,96186.09
2022-10-23T03:09:35.161Z,96194.78
2022-10-23T03:12:20.980Z,96183.53
2022-10-23T03:15:08.090Z,96200.75
2022-10-23T03:17:54.223Z,96198.38
2022-10-23T03:20:40.473Z,96195.97
2022-10-23T03:23:26.149Z,96202.47
2022-10-23T03:26:11.958Z,96197.63
2022-10-23T03:29:01.668Z,96202.47
2022-10-23T03:31:47.312Z,96197.69
2022-10-23T03:34:34.975Z,96206.06
2022-10-23T03:37:22.962Z,96209.06
2022-10-23T03:40:10.121Z,96211.25
2022-10-23T03:42:55.817Z,96212.84
2022-10-23T03:45:41.580Z,96223.13
2022-10-23T03:48:27.408Z,96233.94
2022-10-23T03:51:17.450Z,96236.66
2022-10-23T03:54:03.234Z,96237.75
2022-10-23T03:56:53.625Z,96232.41
2022-10-23T03:59:42.693Z,96238.03
2022-10-23T04:02:28.677Z,96256.13
2022-10-23T04:05:14.444Z,96247.22
2022-10-23T04:08:10.573Z,96244.84
2022-10-23T04:10:57.085Z,96244.03
2022-10-23T04:13:52.244Z,96253.22
2022-10-23T04:16:37.947Z,96243.50
2022-10-23T04:19:25.101Z,96241.09
2022-10-23T04:22:14.458Z,96248.38
2022-10-23T04:25:00.071Z,96253.28
2022-10-23T04:27:47.322Z,96254.63
2022-10-23T04:30:32.950Z,96248.22
2022-10-23T04:33:19.361Z,96261.72
2022-10-23T04:36:09.762Z,96261.44
2022-10-23T04:38:55.763Z,96267.13
2022-10-23T04:41:41.627Z,96263.91
2022-10-23T04:44:27.195Z,96257.97
2022-10-23T04:47:13.049Z,96259.06
2022-10-23T04:50:12.794Z,96255.84
2022-10-23T04:53:17.590Z,96256.44
2022-10-23T04:56:03.402Z,96258.06
2022-10-23T04:58:56.822Z,96264.53
2022-10-23T05:01:43.057Z,96269.41
2022-10-23T05:04:28.915Z,96266.19
2022-10-23T05:07:38.489Z,96271.88
2022-10-23T05:10:44.854Z,96274.31
2022-10-23T05:13:33.090Z,96278.66
2022-10-23T05:16:42.179Z,96278.16
2022-10-23T05:19:35.284Z,96292.16
2022-10-23T05:22:23.060Z,96295.16
2022-10-23T05:25:11.547Z,96295.38
2022-10-23T05:27:59.672Z,96299.75
2022-10-23T05:30:45.701Z,96297.78
2022-10-23T05:33:32.708Z,96301.31
2022-10-23T05:36:19.413Z,96307.78
2022-10-23T05:39:05.608Z,96314.81
2022-10-23T05:41:52.414Z,96319.06
2022-10-23T05:44:42.054Z,96334.16
2022-10-23T05:48:10.834Z,96329.47
2022-10-23T05:51:22.958Z,96316.22
2022-10-23T05:54:29.012Z,96336.13
2022-10-23T05:57:37.194Z,96329.06
2022-10-23T06:00:26.839Z,96330.16
2022-10-23T06:03:29.898Z,96342.00
2022-10-23T06:06:16.048Z,96349.03
2022-10-23T06:09:05.558Z,96346.59
2022-10-23T06:11:56.833Z,96348.22
2022-10-23T06:14:42.996Z,96355.22
2022-10-23T06:17:29.358Z,96353.84
2022-10-23T06:20:15.567Z,96352.50
2022-10-23T06:23:04.270Z,96360.84
2022-10-23T06:26:12.563Z,96364.56
2022-10-23T06:29:14.174Z,96365.63
2022-10-23T06:32:01.948Z,96365.56
2022-10-23T06:34:49.326Z,96355.78
2022-10-23T06:37:35.011Z,96370.88
2022-10-23T06:40:30.595Z,96366.47
2022-10-23T06:43:20.437Z,96370.47
2022-10-23T06:46:33.326Z,96370.91
2022-10-23T06:49:21.871Z,96375.16
2022-10-23T06:52:14.519Z,96370.50
2022-10-23T06:55:10.347Z,96377.44
2022-10-23T06:57:57.847Z,96374.97
2022-10-23T07:00:44.623Z,96368.72
2022-10-23T07:03:30.670Z,96366.72
2022-10-23T07:06:17.097Z,96376.59
2022-10-23T07:09:03.467Z,96370.03
2022-10-23T07:12:11.103Z,96375.88
2022-10-23T07:15:07.790Z,96365.47
2022-10-23T07:17:53.973Z,96371.34
2022-10-23T07:20:42.011Z,96375.81
2022-10-23T07:23:28.050Z,96373.25
2022-10-23T07:26:15.991Z,96378.00
2022-10-23T07:29:02.451Z,96373.53
2022-10-23T07:31:49.209Z,96375.59
2022-10-23T07:34:58.081Z,96380.25
2022-10-23T07:37:48.721Z,96377.94
2022-10-23T07:40:34.927Z,96386.41
2022-10-23T07:43:22.305Z,96383.53
2022-10-23T07:46:09.913Z,96376.88
2022-10-23T07:48:58.289Z,96381.53
2022-10-23T07:51:48.944Z,96383.53
2022-10-23T07:54:39.130Z,96384.16
2022-10-23T07:57:44.526Z,96383.19
2022-10-23T08:00:42.040Z,96390.31
2022-10-23T08:03:35.941Z,96399.09
2022-10-23T08:06:22.351Z,96395.34
2022-10-23T08:09:09.003Z,96390.81
2022-10-23T08:11:57.688Z,96399.03
2022-10-23T08:14:46.323Z,96395.00
2022-10-23T08:17:32.587Z,96400.19
2022-10-23T08:20:25.952Z,96393.13
2022-10-23T08:23:13.547Z,96396.91
2022-10-23T08:26:01.556Z,96400.25
2022-10-23T08:28:50.903Z,96391.75
2022-10-23T08:31:36.863Z,96394.28
2022-10-23T08:34:45.135Z,96383.66
2022-10-23T08:37:31.488Z,96388.91
2022-10-23T08:40:21.978Z,96364.94
2022-10-23T08:43:48.109Z,96376.38
2022-10-23T08:47:07.101Z,96383.19
2022-10-23T08:50:41.486Z,96378.72
2022-10-23T08:53:31.620Z,96377.63
2022-10-23T08:56:35.438Z,96370.56
2022-10-23T08:59:37.976Z,96369.28
2022-10-23T09:02:50.926Z,96368.63
2022-10-23T09:05:51.803Z,96372.75
2022-10-23T09:09:00.101Z,96356.97
2022-10-23T09:12:15.429Z,96368.41
2022-10-23T09:15:30.176Z,96372.50
2022-10-23T09:18:17.512Z,96382.00
2022-10-23T09:21:03.405Z,96371.41
2022-10-23T09:23:49.155Z,96367.88
2022-10-23T09:26:34.914Z,96373.69
2022-10-23T09:29:28.230Z,96365.34
2022-10-23T09:32:13.906Z,96365.63
2022-10-23T09:34:59.827Z,96370.13
2022-10-23T09:37:48.547Z,96368.66
2022-10-23T09:40:44.369Z,96372.34
2022-10-23T09:43:30.320Z,96365.75
2022-10-23T09:46:22.107Z,96366.66
2022-10-23T09:49:17.306Z,96360.16
2022-10-23T09:52:23.953Z,96361.84
2022-10-23T09:55:23.191Z,96364.78
2022-10-23T09:58:31.906Z,96356.75
2022-10-23T10:01:29.094Z,96348.69
2022-10-23T10:04:39.520Z,96346.97
2022-10-23T10:07:26.318Z,96356.94
2022-10-23T10:10:17.221Z,96346.88
2022-10-23T10:13:18.580Z,96348.16
2022-10-23T10:16:20.686Z,96342.81
2022-10-23T10:19:31.418Z,96347.66
2022-10-23T10:23:19.208Z,96347.44
2022-10-23T10:26:11.621Z,96324.50
2022-10-23T10:29:12.680Z,96333.00
2022-10-23T10:31:58.842Z,96326.38
2022-10-23T10:34:51.987Z,96324.72
2022-10-23T10:37:55.017Z,96316.94
2022-10-23T10:41:26.024Z,96309.91
2022-10-23T10:44:36.204Z,96310.78
2022-10-23T10:47:29.540Z,96307.97
2022-10-23T10:50:28.924Z,96299.28
2022-10-23T10:53:40.460Z,96289.75
2022-10-23T10:56:28.474Z,96297.22
2022-10-23T10:59:22.081Z,96291.25
2022-10-23T11:02:16.884Z,96282.09
2022-10-23T11:05:33.760Z,96284.00
2022-10-23T11:08:50.028Z,96262.13
2022-10-23T11:11:45.160Z,96263.94
2022-10-23T11:14:33.922Z,96264.34
2022-10-23T11:17:38.338Z,96262.81
2022-10-23T11:20:40.580Z,96259.25
2022-10-23T11:23:34.925Z,96252.88
2022-10-23T11:26:30.159Z,96243.06
2022-10-23T11:29:29.400Z,96242.75
2022-10-23T11:32:42.406Z,96242.97
2022-10-23T11:35:43.155Z,96240.56
2022-10-23T11:38:38.859Z,96235.63
2022-10-23T11:41:29.749Z,96233.88
2022-10-23T11:44:45.461Z,96220.91
2022-10-23T11:47:40.166Z,96221.44
2022-10-23T11:50:32.732Z,96213.13
2022-10-23T11:53:39.228Z,96211.94
2022-10-23T11:56:27.302Z,96203.88
2022-10-23T11:59:32.900Z,96204.59
2022-10-23T12:02:32.794Z,96195.06
2022-10-23T12:05:42.026Z,96196.19
2022-10-23T12:08:30.804Z,96193.53
2022-10-23T12:11:28.834Z,96192.22
2022-10-23T12:14:28.559Z,96194.81
2022-10-23T12:17:23.509Z,96189.06
2022-10-23T12:20:12.597Z,96187.41
2022-10-23T12:23:16.538Z,96187.25
2022-10-23T12:26:23.694Z,96185.84
2022-10-23T12:29:29.551Z,96188.13
2022-10-23T12:32:39.763Z,96167.22
2022-10-23T12:35:47.710Z,96175.34
2022-10-23T12:38:36.316Z,96171.91
2022-10-23T12:41:28.569Z,96166.63
2022-10-23T12:44:14.274Z,96170.59
2022-10-23T12:47:02.345Z,96168.53
2022-10-23T12:49:49.947Z,96167.09
2022-10-23T12:52:39.741Z,96160.88
2022-10-23T12:55:30.914Z,96169.69
2022-10-23T12:58:30.717Z,96172.19
2022-10-23T13:01:31.372Z,96168.34
2022-10-23T13:04:35.090Z,96164.91
2022-10-23T13:07:26.458Z,96164.78
2022-10-23T13:10:20.406Z,96159.16
2022-10-23T13:24:41.055Z,96149.25
2022-10-23T13:27:33.993Z,96149.25
2022-10-23T13:30:29.721Z,96144.41
2022-10-23T13:33:27.070Z,96144.78
2022-10-23T13:36:16.699Z,96148.34
2022-10-23T13:39:10.563Z,96143.03
2022-10-23T13:41:57.444Z,96138.41
2022-10-23T13:44:43.553Z,96135.50
2022-10-23T13:47:29.749Z,96132.38
2022-10-23T13:50:16.282Z,96135.66
2022-10-23T13:53:05.393Z,96131.22
2022-10-23T13:55:56.233Z,96114.22
2022-10-23T13:58:44.841Z,96114.13
2022-10-23T14:14:44.252Z,96110.34
2022-10-23T14:17:30.432Z,96108.97
2022-10-23T14:20:19.071Z,96110.81
2022-10-23T14:23:05.559Z,96110.63
2022-10-23T14:25:51.796Z,96110.41
2022-10-23T14:28:38.625Z,96105.69
2022-10-23T14:31:25.565Z,96103.22
2022-10-23T14:34:11.624Z,96099.91
2022-10-23T14:37:08.104Z,96108.41
2022-10-23T14:39:55.354Z,96111.69
2022-10-23T14:42:41.808Z,96101.50
2022-10-23T14:45:29.852Z,96096.75
2022-10-23T14:48:16.320Z,96102.69
2022-10-23T14:51:02.353Z,96102.28
2022-10-23T14:53:50.376Z,96093.91
2022-10-23T14:56:40.008Z,96095.78
2022-10-23T14:59:26.004Z,96096.09
2022-10-23T15:02:12.003Z,96100.75
2022-10-23T15:04:58.130Z,96099.44
2022-10-23T15:07:44.141Z,96099.28
2022-10-23T15:10:29.862Z,96099.13
2022-10-23T15:13:16.922Z,96101.69
2022-10-23T15:16:08.580Z,96096.34
2022-10-23T15:18:54.731Z,96097.72
2022-10-23T15:21:40.659Z,96099.09
2022-10-23T15:24:26.846Z,96103.56
2022-10-23T15:27:12.524Z,96104.13
2022-10-23T15:29:58.208Z,96097.53
2022-10-23T15:32:44.703Z,96094.75
2022-10-23T15:35:30.288Z,96106.38
2022-10-23T15:38:16.338Z,96102.91
2022-10-23T15:41:15.280Z,96111.25
2022-10-23T15:44:02.645Z,96109.28
2022-10-23T15:46:48.720Z,96119.22
2022-10-23T15:49:34.786Z,96112.25
2022-10-23T15:52:20.681Z,96112.25
2022-10-23T15:55:06.931Z,96121.81
2022-10-23T15:57:54.209Z,96112.81
2022-10-23T16:00:40.323Z,96117.59
2022-10-23T16:03:26.480Z,96122.44
2022-10-23T16:06:14.641Z,96127.25
2022-10-23T16:09:00.922Z,96118.63
2022-10-23T16:11:47.090Z,96132.47
2022-10-23T16:14:32.686Z,96138.09
2022-10-23T16:17:19.532Z,96125.88
2022-10-23T16:20:06.313Z,96132.69
2022-10-23T16:22:52.019Z,96140.31
2022-10-23T16:25:38.402Z,96138.41
2022-10-23T16:28:24.392Z,96142.47
2022-10-23T16:31:14.463Z,96143.31
2022-10-23T16:34:05.445Z,96145.44
2022-10-23T16:36:51.450Z,96140.00
2022-10-23T16:39:48.576Z,96139.78
2022-10-23T16:42:54.246Z,96148.06
2022-10-23T16:45:47.412Z,96158.03
2022-10-23T16:48:34.612Z,96145.59
2022-10-23T16:51:26.230Z,96155.41
2022-10-23T16:54:12.385Z,96151.34
2022-10-23T16:56:58.734Z,96149.41
2022-10-23T16:59:44.808Z,96150.44
2022-10-23T17:02:30.828Z,96156.84
2022-10-23T17:05:17.245Z,96170.66
2022-10-23T17:08:03.411Z,96168.03
2022-10-23T17:10:49.312Z,96179.22
2022-10-23T17:13:36.565Z,96184.47
2022-10-23T17:16:37.986Z,96185.34
2022-10-23T17:19:43.872Z,96192.22
2022-10-23T17:22:34.713Z,96188.75
2022-10-23T17:25:20.683Z,96186.88
2022-10-23T17:28:06.359Z,96190.53
2022-10-23T17:30:52.690Z,96198.97
2022-10-23T17:33:38.827Z,96193.22
2022-10-23T17:36:26.304Z,96193.78
2022-10-23T17:39:14.126Z,96205.25
2022-10-23T17:42:00.203Z,96199.56
2022-10-23T17:44:46.307Z,96203.19
2022-10-23T17:47:32.396Z,96200.63
2022-10-23T17:50:19.568Z,96194.91
2022-10-23T17:53:05.708Z,96206.50
2022-10-23T17:55:51.652Z,96207.97
2022-10-23T17:58:37.532Z,96203.53
2022-10-23T18:01:25.889Z,96201.66
2022-10-23T18:04:11.595Z,96208.09
2022-10-23T18:06:57.410Z,96206.34
2022-10-23T18:09:43.369Z,96202.22
2022-10-23T18:12:30.474Z,96205.94
2022-10-23T18:15:16.750Z,96202.63
2022-10-23T18:18:07.801Z,96208.41
2022-10-23T18:20:53.621Z,96207.34
2022-10-23T18:23:39.263Z,96202.06
2022-10-23T18:26:27.439Z,96202.88
2022-10-23T18:29:13.407Z,96202.72
2022-10-23T18:31:59.552Z,96201.81
2022-10-23T18:34:45.652Z,96195.72
2022-10-23T18:37:33.836Z,96199.94
2022-10-23T18:40:23.143Z,96203.81
2022-10-23T18:43:15.027Z,96209.44
2022-10-23T18:46:11.054Z,96218.28
2022-10-23T18:48:56.834Z,96209.50
2022-10-23T18:51:42.754Z,96203.41
2022-10-23T18:54:28.941Z,96209.53
2022-10-23T18:57:15.163Z,96212.28
2022-10-23T19:00:01.234Z,96215.03
2022-10-23T19:02:52.013Z,96208.81
2022-10-23T19:05:43.326Z,96213.97
2022-10-23T19:08:29.326Z,96218.00
2022-10-23T19:11:18.058Z,96220.44
2022-10-23T19:14:04.861Z,96220.13
2022-10-23T19:16:53.748Z,96220.63
2022-10-23T19:19:52.326Z,96228.19
2022-10-23T19:22:41.003Z,96214.91
2022-10-23T19:25:30.634Z,96217.78
2022-10-23T19:28:16.410Z,96222.44
2022-10-23T19:31:02.375Z,96218.28
2022-10-23T19:33:48.226Z,96218.28
2022-10-23T19:36:34.233Z,96217.16
2022-10-23T19:39:20.191Z,96219.88
2022-10-23T19:42:08.689Z,96228.22
2022-10-23T19:44:54.770Z,96220.19
2022-10-23T19:47:41.383Z,96222.44
2022-10-23T19:50:28.148Z,96219.91
2022-10-23T19:53:14.271Z,96227.44
2022-10-23T19:56:05.606Z,96235.44
2022-10-23T19:58:52.313Z,96233.63
2022-10-23T20:01:38.729Z,96234.59
2022-10-23T20:04:24.757Z,96231.72
2022-10-23T20:07:10.991Z,96239.88
2022-10-23T20:09:57.493Z,96233.16
2022-10-23T20:12:47.561Z,96232.19
2022-10-23T20:15:43.131Z,96228.81
2022-10-23T20:18:29.558Z,96230.25
2022-10-23T20:21:16.261Z,96234.44
2022-10-23T20:24:02.041Z,96236.19
2022-10-23T20:26:53.803Z,96240.66
2022-10-23T20:29:40.295Z,96241.63
2022-10-23T20:32:26.243Z,96242.56
2022-10-23T20:35:12.279Z,96234.38
2022-10-23T20:37:58.164Z,96247.69
2022-10-23T20:40:43.839Z,96257.59
2022-10-23T20:43:29.947Z,96251.19
2022-10-23T20:46:15.904Z,96257.25
2022-10-23T20:49:01.601Z,96242.19
2022-10-23T20:51:55.763Z,96248.28
2022-10-23T20:54:41.617Z,96254.34
2022-10-23T20:57:27.816Z,96249.50
2022-10-23T21:00:13.849Z,96255.56
2022-10-23T21:03:01.570Z,96248.38
2022-10-23T21:05:47.411Z,96252.03
2022-10-23T21:08:33.445Z,96250.28
2022-10-23T21:11:19.442Z,96242.84
2022-10-23T21:14:05.435Z,96242.69
2022-10-23T21:16:51.508Z,96243.09
2022-10-23T21:19:39.134Z,96255.44
2022-10-23T21:22:24.990Z,96250.13
2022-10-23T21:25:10.720Z,96255.06
2022-10-23T21:27:56.670Z,96248.66
2022-10-23T21:30:42.348Z,96252.00
2022-10-23T21:33:29.527Z,96251.50
2022-10-23T21:36:18.465Z,96247.47
2022-10-23T21:39:04.578Z,96246.50
2022-10-23T21:41:50.350Z,96251.16
2022-10-23T21:44:36.241Z,96249.97
2022-10-23T21:47:22.238Z,96243.09
2022-10-23T21:50:08.607Z,96238.94
2022-10-23T21:52:54.392Z,96240.84
2022-10-23T21:55:40.465Z,96248.31
2022-10-23T21:58:26.529Z,96245.59
2022-10-23T22:01:12.759Z,96238.84
2022-10-23T22:03:59.023Z,96250.66
2022-10-23T22:06:46.723Z,96251.28
2022-10-23T22:09:34.233Z,96247.91
2022-10-23T22:12:19.891Z,96250.91
2022-10-23T22:15:06.478Z,96248.31
2022-10-23T22:17:53.816Z,96243.53
2022-10-23T22:20:39.847Z,96253.88
2022-10-23T22:23:26.731Z,96247.44
2022-10-23T22:26:26.074Z,96256.19
2022-10-23T22:29:14.445Z,96241.16
2022-10-23T22:32:00.593Z,96257.94
2022-10-23T22:34:53.057Z,96262.88
2022-10-23T22:37:39.473Z,96258.56
2022-10-23T22:40:38.143Z,96264.28
2022-10-23T22:43:24.690Z,96261.06
2022-10-23T22:46:17.944Z,96264.09
2022-10-23T22:51:54.793Z,96244.22
2022-10-23T22:54:40.595Z,96252.84
2022-10-23T23:00:17.394Z,96244.84
2022-10-23T23:03:03.276Z,96247.06
2022-10-23T23:05:49.469Z,96247.16
2022-10-23T23:08:36.348Z,96259.91
2022-10-23T23:11:23.008Z,96244.84
2022-10-23T23:14:09.347Z,96256.50
2022-10-23T23:16:55.250Z,96254.91
2022-10-23T23:19:41.306Z,96262.53
2022-10-23T23:25:18.008Z,96254.50
2022-10-23T23:28:03.911Z,96258.94
2022-10-23T23:30:50.184Z,96250.28
2022-10-23T23:33:36.573Z,96251.69
2022-10-23T23:36:25.366Z,96250.72
2022-10-23T23:39:11.713Z,96252.13
2022-10-23T23:41:57.444Z,96246.19
2022-10-23T23:44:50.412Z,96244.50
2022-10-23T23:47:49.410Z,96256.16
2022-10-23T23:50:35.218Z,96252.94
2022-10-23T23:53:20.892Z,96251.34
2022-10-23T23:56:06.882Z,96253.53
2022-10-23T23:58:52.784Z,96250.34
